| time (UTC) | temp F | wind direction | speed MPH | gust MPH | rain 1hr in | rain 24hr in | rain mn in | humidity % | barometer mb |
| 20260506230011 | 50 | 302 | 16.0 | 0.0 | 0.00 | 0.00 | 0.00 | 80 | 1009.5 |
| 20260506224507 | 49 | 282 | 14.0 | 0.0 | 0.00 | 0.00 | 0.00 | 88 | 1009.8 |
| 20260506223101 | 49 | 353 | 12.0 | 0.0 | 0.00 | 0.00 | 0.00 | 89 | 1009.7 |
| 20260506221556 | 48 | 198 | 11.0 | 0.0 | 0.00 | 0.00 | 0.00 | 96 | 1009.8 |
| 20260506214548 | 48 | 353 | 10.0 | 0.0 | 0.00 | 0.00 | 2.14 | 98 | 1009.8 |
| 20260506213045 | 49 | 188 | 9.0 | 0.0 | 0.00 | 0.00 | 2.14 | 97 | 1009.9 |
| 20260506211540 | 49 | 186 | 8.0 | 0.0 | 0.00 | 0.00 | 2.14 | 96 | 1010.1 |
| 20260506210036 | 50 | 189 | 8.0 | 0.0 | 0.00 | 0.00 | 2.14 | 93 | 1010.0 |
| 20260506204534 | 50 | 356 | 11.0 | 0.0 | 0.00 | 0.00 | 2.14 | 89 | 1009.6 |
| 20260506203034 | 51 | 356 | 14.0 | 0.0 | 0.00 | 0.00 | 2.14 | 84 | 1009.6 |
| 20260506201524 | 51 | 354 | 13.0 | 0.0 | 0.00 | 0.00 | 2.14 | 87 | 1009.5 |
| 20260506200024 | 51 | 354 | 13.0 | 0.0 | 0.00 | 0.00 | 2.14 | 88 | 1009.2 |
| 20260506194516 | 52 | 354 | 15.0 | 0.0 | 0.00 | 0.00 | 2.14 | 85 | 1009.1 |
| 20260506193010 | 52 | 189 | 15.0 | 0.0 | 0.00 | 0.00 | 2.14 | 84 | 1008.6 |
| 20260506191507 | 52 | 353 | 16.0 | 0.0 | 0.00 | 0.00 | 2.14 | 83 | 1008.3 |
| 20260506190004 | 52 | 352 | 13.0 | 0.0 | 0.00 | 0.00 | 2.14 | 85 | 1008.1 |
| 20260506184602 | 52 | 353 | 11.0 | 0.0 | 0.00 | 0.00 | 2.14 | 87 | 1008.1 |
| 20260506183059 | 53 | 352 | 10.0 | 0.0 | 0.00 | 0.00 | 2.14 | 87 | 1008.0 |
| 20260506181556 | 53 | 340 | 11.0 | 0.0 | 0.00 | 0.00 | 2.14 | 89 | 1008.0 |
| 20260506180047 | 53 | 272 | 13.0 | 0.0 | 0.00 | 0.00 | 2.14 | 89 | 1008.0 |
| 20260506174544 | 53 | 285 | 11.0 | 0.0 | 0.00 | 0.00 | 2.14 | 91 | 1007.8 |
| 20260506173047 | 53 | 352 | 10.0 | 0.0 | 0.00 | 0.00 | 2.14 | 92 | 1008.0 |
| 20260506171535 | 53 | 278 | 8.0 | 0.0 | 0.00 | 0.00 | 2.13 | 97 | 1007.8 |
| 20260506170027 | 53 | 222 | 7.0 | 0.0 | 0.00 | 0.00 | 2.13 | 97 | 1007.9 |
| 20260506164524 | 53 | 352 | 11.0 | 0.0 | 0.00 | 0.00 | 2.12 | 94 | 1007.9 |
| 20260506163037 | 53 | 272 | 13.0 | 0.0 | 0.00 | 0.00 | 2.11 | 91 | 1007.7 |
| 20260506161515 | 53 | 352 | 7.0 | 0.0 | 0.00 | 0.00 | 2.10 | 97 | 1007.8 |
| 20260506160010 | 54 | 198 | 5.0 | 0.0 | 0.00 | 0.00 | 2.09 | 95 | 1007.8 |
| 20260506154525 | 54 | 196 | 4.0 | 0.0 | 0.00 | 0.00 | 2.08 | 93 | 1007.8 |
| 20260506153001 | 56 | 182 | 8.0 | 0.0 | 0.00 | 0.00 | 2.08 | 88 | 1007.7 |
| 20260506151556 | 55 | 299 | 5.0 | 0.0 | 0.00 | 0.00 | 2.08 | 88 | 1007.7 |
| 20260506150054 | 56 | 203 | 13.0 | 0.0 | 0.00 | 0.00 | 2.08 | 88 | 1007.6 |
| 20260506144552 | 55 | 352 | 16.0 | 0.0 | 0.00 | 0.00 | 2.08 | 88 | 1007.3 |
| 20260506143046 | 52 | 278 | 19.0 | 0.0 | 0.00 | 0.00 | 2.08 | 90 | 1007.7 |
| 20260506141542 | 52 | 352 | 19.0 | 0.0 | 0.00 | 0.00 | 2.06 | 92 | 1007.6 |
| 20260506140038 | 53 | 285 | 17.0 | 0.0 | 0.00 | 0.00 | 2.04 | 92 | 1007.8 |
| 20260506134534 | 57 | 356 | 13.0 | 0.0 | 0.00 | 0.00 | 1.96 | 85 | 1007.3 |
| 20260506133030 | 57 | 347 | 17.0 | 0.0 | 0.00 | 0.00 | 1.96 | 85 | 1007.3 |
| 20260506131529 | 56 | 198 | 21.0 | 0.0 | 0.00 | 0.00 | 1.96 | 85 | 1007.2 |
| 20260506130021 | 57 | 175 | 19.0 | 0.0 | 0.00 | 0.00 | 1.95 | 82 | 1006.8 |
| 20260506124517 | 58 | 256 | 19.0 | 0.0 | 0.00 | 0.00 | 1.95 | 81 | 1006.5 |
| 20260506123011 | 57 | 188 | 19.0 | 0.0 | 0.00 | 0.00 | 1.95 | 83 | 1006.8 |
| 20260506121506 | 57 | 353 | 20.0 | 0.0 | 0.00 | 0.00 | 1.95 | 83 | 1006.7 |
| 20260506120002 | 57 | 195 | 20.0 | 0.0 | 0.00 | 0.00 | 1.95 | 84 | 1007.2 |
| 20260506114558 | 56 | 354 | 19.0 | 0.0 | 0.00 | 0.00 | 1.95 | 86 | 1007.2 |
| 20260506113054 | 56 | 352 | 17.0 | 0.0 | 0.00 | 0.00 | 1.95 | 89 | 1007.3 |
| 20260506111551 | 55 | 189 | 20.0 | 0.0 | 0.00 | 0.00 | 1.95 | 89 | 1007.3 |
| 20260506110046 | 55 | 343 | 19.0 | 0.0 | 0.00 | 0.00 | 1.95 | 92 | 1007.7 |
| 20260506104541 | 55 | 192 | 18.0 | 0.0 | 0.00 | 0.00 | 1.95 | 95 | 1007.8 |
| 20260506103036 | 53 | 347 | 19.0 | 0.0 | 0.00 | 0.00 | 1.95 | 98 | 1007.7 |
| 20260506101532 | 53 | 347 | 17.0 | 0.0 | 0.00 | 0.00 | 1.95 | 100 | 1008.1 |
| 20260506100031 | 54 | 349 | 17.0 | 0.0 | 0.00 | 0.00 | 1.95 | 100 | 1008.1 |
| 20260506094523 | 54 | 188 | 18.0 | 0.0 | 0.00 | 0.00 | 1.95 | 100 | 1008.0 |
| 20260506093018 | 54 | 346 | 16.0 | 0.0 | 0.00 | 0.00 | 1.95 | 100 | 1007.7 |
| 20260506091514 | 54 | 350 | 16.0 | 0.0 | 0.00 | 0.00 | 1.95 | 100 | 1007.8 |
| 20260506090009 | 54 | 344 | 20.0 | 0.0 | 0.00 | 0.00 | 1.95 | 100 | 1007.5 |
| 20260506084505 | 54 | 189 | 19.0 | 0.0 | 0.00 | 0.00 | 1.95 | 100 | 1007.3 |
| 20260506083100 | 54 | 316 | 18.0 | 0.0 | 0.00 | 0.00 | 1.95 | 100 | 1007.2 |
| 20260506081611 | 54 | 188 | 16.0 | 0.0 | 0.00 | 0.00 | 1.95 | 100 | 1007.3 |
| 20260506073045 | 53 | 344 | 12.0 | 0.0 | 0.00 | 0.00 | 1.95 | 100 | 1007.4 |
| 20260506071539 | 53 | 195 | 8.0 | 0.0 | 0.00 | 0.00 | 1.95 | 100 | 1007.4 |
| 20260506061524 | 52 | 141 | 0.0 | 0.0 | 0.00 | 0.00 | 1.93 | 100 | 1007.6 |
| 20260506044556 | 51 | 181 | 0.0 | 0.0 | 0.00 | 0.00 | 1.90 | 100 | 1008.5 |
| 20260506043054 | 50 | 182 | 0.0 | 0.0 | 0.00 | 0.00 | 1.88 | 100 | 1008.6 |
| 20260506041559 | 51 | 179 | 2.0 | 0.0 | 0.00 | 0.00 | 1.81 | 100 | 1008.4 |
| 20260506040044 | 50 | 182 | 6.0 | 0.0 | 0.00 | 0.00 | 1.65 | 100 | 1008.4 |
| 20260506034549 | 50 | 343 | 4.0 | 0.0 | 0.00 | 0.00 | 1.41 | 100 | 1008.1 |
| 20260506033031 | 51 | 282 | 4.0 | 0.0 | 0.00 | 0.00 | 1.32 | 100 | 1008.2 |
| 20260506031527 | 49 | 284 | 8.0 | 0.0 | 0.00 | 0.00 | 1.11 | 100 | 1008.4 |
| 20260506030026 | 49 | 292 | 6.0 | 0.0 | 0.00 | 0.00 | 0.86 | 100 | 1008.5 |
| 20260506024519 | 49 | 312 | 0.0 | 0.0 | 0.00 | 0.00 | 0.63 | 100 | 1008.2 |
| 20260506023013 | 49 | 349 | 0.0 | 0.0 | 0.00 | 0.00 | 0.60 | 100 | 1008.0 |
| 20260506021510 | 49 | 349 | 1.0 | 0.0 | 0.00 | 0.00 | 0.60 | 100 | 1008.2 |
| 20260506020004 | 49 | 295 | 5.0 | 0.0 | 0.00 | 0.00 | 0.59 | 100 | 1008.8 |
| 20260506014601 | 50 | 275 | 7.0 | 0.0 | 0.00 | 0.00 | 0.53 | 100 | 1008.9 |
| 20260506013103 | 50 | 295 | 19.0 | 0.0 | 0.00 | 0.00 | 0.45 | 100 | 1008.9 |
| 20260506011554 | 52 | 280 | 10.0 | 0.0 | 0.00 | 0.00 | 0.15 | 98 | 1008.3 |
| 20260506010049 | 52 | 344 | 9.0 | 0.0 | 0.00 | 0.00 | 0.15 | 97 | 1008.5 |
| 20260506004544 | 52 | 349 | 6.0 | 0.0 | 0.00 | 0.00 | 0.15 | 97 | 1008.8 |
| 20260506003041 | 53 | 347 | 12.0 | 0.0 | 0.00 | 0.00 | 0.15 | 92 | 1008.7 |
| 20260506001537 | 52 | 271 | 12.0 | 0.0 | 0.00 | 0.00 | 0.13 | 94 | 1009.1 |
| 20260506000031 | 52 | 304 | 14.0 | 0.0 | 0.00 | 0.00 | 0.06 | 100 | 1009.1 |
| 20260505234527 | 53 | 344 | 13.0 | 0.0 | 0.00 | 0.00 | 0.02 | 99 | 1009.1 |
| 20260505233027 | 53 | 192 | 13.0 | 0.0 | 0.00 | 0.00 | 0.01 | 98 | 1009.2 |
| 20260505231520 | 54 | 191 | 13.0 | 0.0 | 0.00 | 0.00 | 0.00 | 98 | 1009.2 |